sensor_id;sensor_type;location;lat;lon;timestamp;pressure;altitude;pressure_sealevel;temperature;humidity
14253;BME280;7210;51.502;10.722;2022-09-01T00:02:08;100203.59;;;11.21;80.24
14253;BME280;7210;51.502;10.722;2022-09-01T00:04:37;100207.91;;;11.16;80.87
14253;BME280;7210;51.502;10.722;2022-09-01T00:07:07;100200.63;;;11.12;81.04
14253;BME280;7210;51.502;10.722;2022-09-01T00:09:35;100199.47;;;11.01;81.30
14253;BME280;7210;51.502;10.722;2022-09-01T00:12:08;100202.38;;;10.93;81.68
14253;BME280;7210;51.502;10.722;2022-09-01T00:14:39;100203.06;;;10.82;82.28
14253;BME280;7210;51.502;10.722;2022-09-01T00:17:10;100204.94;;;10.75;82.78
14253;BME280;7210;51.502;10.722;2022-09-01T00:19:38;100198.28;;;10.66;82.88
14253;BME280;7210;51.502;10.722;2022-09-01T00:22:07;100190.84;;;10.50;83.64
14253;BME280;7210;51.502;10.722;2022-09-01T00:24:35;100200.59;;;10.50;83.79
14253;BME280;7210;51.502;10.722;2022-09-01T00:27:03;100206.72;;;10.50;84.34
14253;BME280;7210;51.502;10.722;2022-09-01T00:29:30;100206.28;;;10.53;84.51
14253;BME280;7210;51.502;10.722;2022-09-01T00:31:58;100205.50;;;10.46;84.31
14253;BME280;7210;51.502;10.722;2022-09-01T00:34:30;100207.94;;;10.41;84.12
14253;BME280;7210;51.502;10.722;2022-09-01T00:36:58;100202.28;;;10.38;83.57
14253;BME280;7210;51.502;10.722;2022-09-01T00:39:38;100199.78;;;10.49;83.88
14253;BME280;7210;51.502;10.722;2022-09-01T00:42:05;100207.13;;;10.47;83.48
14253;BME280;7210;51.502;10.722;2022-09-01T00:44:33;100201.81;;;10.47;83.80
14253;BME280;7210;51.502;10.722;2022-09-01T00:47:01;100193.75;;;10.42;84.12
14253;BME280;7210;51.502;10.722;2022-09-01T00:49:41;100192.31;;;10.40;84.42
14253;BME280;7210;51.502;10.722;2022-09-01T00:52:16;100197.38;;;10.41;84.75
14253;BME280;7210;51.502;10.722;2022-09-01T00:54:51;100201.66;;;10.42;85.11
14253;BME280;7210;51.502;10.722;2022-09-01T00:57:20;100195.75;;;10.40;85.15
14253;BME280;7210;51.502;10.722;2022-09-01T00:59:54;100180.34;;;10.37;84.92
14253;BME280;7210;51.502;10.722;2022-09-01T01:02:23;100196.97;;;10.44;85.10
14253;BME280;7210;51.502;10.722;2022-09-01T01:04:54;100193.75;;;10.42;85.04
14253;BME280;7210;51.502;10.722;2022-09-01T01:07:26;100190.47;;;10.40;85.16
14253;BME280;7210;51.502;10.722;2022-09-01T01:09:56;100183.59;;;10.33;85.18
14253;BME280;7210;51.502;10.722;2022-09-01T01:12:23;100185.44;;;10.32;85.55
14253;BME280;7210;51.502;10.722;2022-09-01T01:14:55;100184.88;;;10.24;85.58
14253;BME280;7210;51.502;10.722;2022-09-01T01:17:24;100185.31;;;10.14;86.22
14253;BME280;7210;51.502;10.722;2022-09-01T01:19:55;100189.22;;;10.05;86.22
14253;BME280;7210;51.502;10.722;2022-09-01T01:22:48;100181.47;;;10.04;86.62
14253;BME280;7210;51.502;10.722;2022-09-01T01:25:33;100172.53;;;9.98;86.65
14253;BME280;7210;51.502;10.722;2022-09-01T01:28:11;100188.59;;;10.03;86.86
14253;BME280;7210;51.502;10.722;2022-09-01T01:30:43;100187.00;;;9.89;87.30
14253;BME280;7210;51.502;10.722;2022-09-01T01:33:20;100190.66;;;9.88;87.22
14253;BME280;7210;51.502;10.722;2022-09-01T01:35:49;100181.31;;;9.79;87.48
14253;BME280;7210;51.502;10.722;2022-09-01T01:38:19;100188.03;;;9.75;87.60
14253;BME280;7210;51.502;10.722;2022-09-01T01:40:51;100191.50;;;9.69;87.62
14253;BME280;7210;51.502;10.722;2022-09-01T01:46:13;100190.72;;;9.56;88.12
14253;BME280;7210;51.502;10.722;2022-09-01T01:48:44;100197.41;;;9.58;88.43
14253;BME280;7210;51.502;10.722;2022-09-01T01:51:12;100190.72;;;9.56;88.42
14253;BME280;7210;51.502;10.722;2022-09-01T01:53:48;100195.38;;;9.60;88.68
14253;BME280;7210;51.502;10.722;2022-09-01T01:56:19;100193.34;;;9.62;88.86
14253;BME280;7210;51.502;10.722;2022-09-01T01:58:47;100197.59;;;9.63;88.87
14253;BME280;7210;51.502;10.722;2022-09-01T02:01:21;100186.84;;;9.58;88.70
14253;BME280;7210;51.502;10.722;2022-09-01T02:03:50;100183.78;;;9.61;89.00
14253;BME280;7210;51.502;10.722;2022-09-01T02:09:10;100178.53;;;9.48;89.35
14253;BME280;7210;51.502;10.722;2022-09-01T02:11:39;100184.81;;;9.47;89.46
14253;BME280;7210;51.502;10.722;2022-09-01T02:14:08;100180.75;;;9.45;90.04
14253;BME280;7210;51.502;10.722;2022-09-01T02:19:36;100169.63;;;9.36;90.34
14253;BME280;7210;51.502;10.722;2022-09-01T02:22:13;100172.88;;;9.32;90.47
14253;BME280;7210;51.502;10.722;2022-09-01T02:24:40;100165.16;;;9.30;90.64
14253;BME280;7210;51.502;10.722;2022-09-01T02:27:14;100173.06;;;9.30;91.17
14253;BME280;7210;51.502;10.722;2022-09-01T02:29:52;100170.03;;;9.27;91.21
14253;BME280;7210;51.502;10.722;2022-09-01T02:32:20;100173.69;;;9.26;91.34
14253;BME280;7210;51.502;10.722;2022-09-01T02:34:49;100174.91;;;9.23;91.61
14253;BME280;7210;51.502;10.722;2022-09-01T02:37:25;100175.31;;;9.20;91.79
14253;BME280;7210;51.502;10.722;2022-09-01T02:39:55;100173.69;;;9.19;91.86
14253;BME280;7210;51.502;10.722;2022-09-01T02:42:25;100175.69;;;9.17;92.22
14253;BME280;7210;51.502;10.722;2022-09-01T02:44:55;100174.09;;;9.16;92.50
14253;BME280;7210;51.502;10.722;2022-09-01T02:47:25;100165.38;;;9.22;92.71
14253;BME280;7210;51.502;10.722;2022-09-01T02:50:01;100162.53;;;9.24;92.70
14253;BME280;7210;51.502;10.722;2022-09-01T02:52:28;100162.50;;;9.17;92.80
14253;BME280;7210;51.502;10.722;2022-09-01T02:55:01;100170.44;;;9.17;93.12
14253;BME280;7210;51.502;10.722;2022-09-01T02:57:30;100167.59;;;9.19;93.15
14253;BME280;7210;51.502;10.722;2022-09-01T03:00:01;100172.88;;;9.12;92.94
14253;BME280;7210;51.502;10.722;2022-09-01T03:02:30;100165.78;;;9.06;93.31
14253;BME280;7210;51.502;10.722;2022-09-01T03:05:01;100163.13;;;9.06;93.52
14253;BME280;7210;51.502;10.722;2022-09-01T03:07:31;100162.53;;;9.04;93.78
14253;BME280;7210;51.502;10.722;2022-09-01T03:09:58;100171.84;;;9.00;93.80
14253;BME280;7210;51.502;10.722;2022-09-01T03:12:29;100162.75;;;8.96;94.03
14253;BME280;7210;51.502;10.722;2022-09-01T03:15:01;100174.50;;;9.00;93.97
14253;BME280;7210;51.502;10.722;2022-09-01T03:17:29;100165.97;;;8.98;93.89
14253;BME280;7210;51.502;10.722;2022-09-01T03:20:01;100156.84;;;8.88;93.97
14253;BME280;7210;51.502;10.722;2022-09-01T03:22:29;100148.50;;;8.84;93.97
14253;BME280;7210;51.502;10.722;2022-09-01T03:25:07;100149.31;;;8.78;93.96
14253;BME280;7210;51.502;10.722;2022-09-01T03:27:36;100153.19;;;8.76;93.90
14253;BME280;7210;51.502;10.722;2022-09-01T03:30:05;100150.75;;;8.74;94.14
14253;BME280;7210;51.502;10.722;2022-09-01T03:32:33;100151.75;;;8.73;94.20
14253;BME280;7210;51.502;10.722;2022-09-01T03:35:00;100156.03;;;8.74;94.62
14253;BME280;7210;51.502;10.722;2022-09-01T03:37:28;100151.53;;;8.75;94.57
14253;BME280;7210;51.502;10.722;2022-09-01T03:40:03;100150.53;;;8.69;94.55
14253;BME280;7210;51.502;10.722;2022-09-01T03:42:32;100153.75;;;8.58;94.58
14253;BME280;7210;51.502;10.722;2022-09-01T03:45:01;100157.41;;;8.57;94.81
14253;BME280;7210;51.502;10.722;2022-09-01T03:47:39;100157.41;;;8.57;94.98
14253;BME280;7210;51.502;10.722;2022-09-01T03:50:10;100150.53;;;8.56;95.17
14253;BME280;7210;51.502;10.722;2022-09-01T03:52:45;100149.28;;;8.52;95.26
14253;BME280;7210;51.502;10.722;2022-09-01T03:55:14;100148.88;;;8.49;95.33
14253;BME280;7210;51.502;10.722;2022-09-01T03:57:48;100127.38;;;8.39;95.39
14253;BME280;7210;51.502;10.722;2022-09-01T04:00:40;100146.59;;;8.39;95.42
14253;BME280;7210;51.502;10.722;2022-09-01T04:03:11;100145.41;;;8.35;95.38
14253;BME280;7210;51.502;10.722;2022-09-01T04:05:51;100145.16;;;8.30;95.87
14253;BME280;7210;51.502;10.722;2022-09-01T04:08:21;100142.94;;;8.27;95.68
14253;BME280;7210;51.502;10.722;2022-09-01T04:10:52;100144.97;;;8.25;95.51
14253;BME280;7210;51.502;10.722;2022-09-01T04:13:24;100149.59;;;8.23;95.58
14253;BME280;7210;51.502;10.722;2022-09-01T04:15:53;100145.16;;;8.24;95.88
14253;BME280;7210;51.502;10.722;2022-09-01T04:18:22;100152.25;;;8.23;95.69
14253;BME280;7210;51.502;10.722;2022-09-01T04:20:52;100149.19;;;8.20;95.55
14253;BME280;7210;51.502;10.722;2022-09-01T04:23:25;100154.00;;;8.16;95.58
14253;BME280;7210;51.502;10.722;2022-09-01T04:26:04;100154.41;;;8.13;96.11
14253;BME280;7210;51.502;10.722;2022-09-01T04:28:40;100146.28;;;8.08;96.07
14253;BME280;7210;51.502;10.722;2022-09-01T04:31:15;100148.50;;;8.05;95.84
14253;BME280;7210;51.502;10.722;2022-09-01T04:33:49;100148.28;;;8.00;95.97
14253;BME280;7210;51.502;10.722;2022-09-01T04:36:21;100132.84;;;7.90;96.23
14253;BME280;7210;51.502;10.722;2022-09-01T04:38:53;100155.75;;;7.96;96.58
14253;BME280;7210;51.502;10.722;2022-09-01T04:41:23;100160.00;;;7.97;96.53
14253;BME280;7210;51.502;10.722;2022-09-01T04:43:55;100160.00;;;7.97;97.14
14253;BME280;7210;51.502;10.722;2022-09-01T04:46:25;100168.16;;;8.02;97.34
14253;BME280;7210;51.502;10.722;2022-09-01T04:48:55;100158.84;;;8.06;97.48
14253;BME280;7210;51.502;10.722;2022-09-01T04:51:23;100170.03;;;8.15;97.53
14253;BME280;7210;51.502;10.722;2022-09-01T04:53:54;100171.09;;;8.20;97.36
14253;BME280;7210;51.502;10.722;2022-09-01T04:56:25;100173.94;;;8.25;97.61
14253;BME280;7210;51.502;10.722;2022-09-01T04:59:22;100173.53;;;8.28;97.24
14253;BME280;7210;51.502;10.722;2022-09-01T05:01:57;100166.28;;;8.37;97.39
14253;BME280;7210;51.502;10.722;2022-09-01T05:04:28;100169.31;;;8.40;97.19
14253;BME280;7210;51.502;10.722;2022-09-01T05:06:58;100154.13;;;8.42;96.89
14253;BME280;7210;51.502;10.722;2022-09-01T05:09:36;100165.28;;;8.51;96.77
14253;BME280;7210;51.502;10.722;2022-09-01T05:12:25;100162.28;;;8.54;96.67
14253;BME280;7210;51.502;10.722;2022-09-01T05:14:55;100158.84;;;8.66;97.03
14253;BME280;7210;51.502;10.722;2022-09-01T05:17:26;100160.69;;;8.79;96.67
14253;BME280;7210;51.502;10.722;2022-09-01T05:19:54;100161.91;;;8.83;96.37
14253;BME280;7210;51.502;10.722;2022-09-01T05:22:25;100157.84;;;8.87;96.23
14253;BME280;7210;51.502;10.722;2022-09-01T05:24:57;100156.66;;;8.89;96.15
14253;BME280;7210;51.502;10.722;2022-09-01T05:27:44;100141.84;;;8.88;95.99
14253;BME280;7210;51.502;10.722;2022-09-01T05:30:17;100163.75;;;9.08;96.31
14253;BME280;7210;51.502;10.722;2022-09-01T05:32:50;100160.72;;;9.11;96.61
14253;BME280;7210;51.502;10.722;2022-09-01T05:35:20;100157.25;;;9.17;96.37
14253;BME280;7210;51.502;10.722;2022-09-01T05:37:55;100166.81;;;9.18;96.69
14253;BME280;7210;51.502;10.722;2022-09-01T05:40:38;100166.78;;;9.31;97.00
14253;BME280;7210;51.502;10.722;2022-09-01T05:43:08;100150.94;;;9.31;97.10
14253;BME280;7210;51.502;10.722;2022-09-01T05:45:43;100170.38;;;9.56;97.29
14253;BME280;7210;51.502;10.722;2022-09-01T05:48:14;100173.84;;;9.63;97.11
14253;BME280;7210;51.502;10.722;2022-09-01T05:50:50;100170.97;;;9.78;96.94
14253;BME280;7210;51.502;10.722;2022-09-01T05:53:26;100168.66;;;9.94;96.35
14253;BME280;7210;51.502;10.722;2022-09-01T05:56:04;100158.09;;;10.01;96.03
14253;BME280;7210;51.502;10.722;2022-09-01T05:58:34;100158.88;;;10.14;95.76
14253;BME280;7210;51.502;10.722;2022-09-01T06:01:01;100170.25;;;10.21;95.47
14253;BME280;7210;51.502;10.722;2022-09-01T06:03:30;100166.94;;;10.32;95.45
14253;BME280;7210;51.502;10.722;2022-09-01T06:06:02;100164.88;;;10.41;95.46
14253;BME280;7210;51.502;10.722;2022-09-01T06:08:38;100161.97;;;10.49;95.18
14253;BME280;7210;51.502;10.722;2022-09-01T06:11:08;100164.16;;;10.58;95.22
14253;BME280;7210;51.502;10.722;2022-09-01T06:13:38;100167.31;;;10.73;95.19
14253;BME280;7210;51.502;10.722;2022-09-01T06:16:07;100168.69;;;10.82;94.90
14253;BME280;7210;51.502;10.722;2022-09-01T06:18:36;100156.97;;;10.96;94.70
14253;BME280;7210;51.502;10.722;2022-09-01T06:21:05;100161.03;;;11.23;94.13
14253;BME280;7210;51.502;10.722;2022-09-01T06:23:34;100157.56;;;11.47;93.44
14253;BME280;7210;51.502;10.722;2022-09-01T06:26:02;100155.28;;;11.75;92.56
14253;BME280;7210;51.502;10.722;2022-09-01T06:28:30;100151.56;;;11.94;91.69
14253;BME280;7210;51.502;10.722;2022-09-01T06:30:57;100152.47;;;12.06;90.82
14253;BME280;7210;51.502;10.722;2022-09-01T06:33:31;100155.91;;;12.24;90.12
14253;BME280;7210;51.502;10.722;2022-09-01T06:36:01;100159.59;;;12.53;89.72
14253;BME280;7210;51.502;10.722;2022-09-01T06:38:30;100146.75;;;12.68;88.86
14253;BME280;7210;51.502;10.722;2022-09-01T06:41:02;100153.00;;;12.85;88.21
14253;BME280;7210;51.502;10.722;2022-09-01T06:43:31;100158.28;;;13.14;87.39
14253;BME280;7210;51.502;10.722;2022-09-01T06:46:01;100160.16;;;13.37;86.29
14253;BME280;7210;51.502;10.722;2022-09-01T06:48:29;100160.47;;;13.52;85.97
14253;BME280;7210;51.502;10.722;2022-09-01T06:51:12;100163.25;;;13.68;85.16
14253;BME280;7210;51.502;10.722;2022-09-01T06:53:41;100162.75;;;13.83;84.58
14253;BME280;7210;51.502;10.722;2022-09-01T06:56:13;100168.75;;;13.90;84.04
14253;BME280;7210;51.502;10.722;2022-09-01T06:58:43;100167.69;;;14.02;83.88
14253;BME280;7210;51.502;10.722;2022-09-01T07:01:20;100165.25;;;14.24;83.16
14253;BME280;7210;51.502;10.722;2022-09-01T07:03:52;100164.41;;;14.35;82.99
14253;BME280;7210;51.502;10.722;2022-09-01T07:06:29;100163.34;;;14.36;82.20
14253;BME280;7210;51.502;10.722;2022-09-01T07:09:26;100164.03;;;14.43;81.68
14253;BME280;7210;51.502;10.722;2022-09-01T07:12:14;100163.44;;;14.52;82.08
14253;BME280;7210;51.502;10.722;2022-09-01T07:14:45;100159.75;;;14.70;81.87
14253;BME280;7210;51.502;10.722;2022-09-01T07:17:14;100160.50;;;14.82;81.60
14253;BME280;7210;51.502;10.722;2022-09-01T07:19:42;100154.13;;;14.83;81.35
14253;BME280;7210;51.502;10.722;2022-09-01T07:22:13;100163.97;;;14.99;81.25
14253;BME280;7210;51.502;10.722;2022-09-01T07:24:44;100163.28;;;15.03;81.13
14253;BME280;7210;51.502;10.722;2022-09-01T07:27:32;100165.28;;;15.13;80.06
14253;BME280;7210;51.502;10.722;2022-09-01T07:30:01;100164.66;;;15.22;79.74
14253;BME280;7210;51.502;10.722;2022-09-01T07:32:32;100168.09;;;15.34;79.54
14253;BME280;7210;51.502;10.722;2022-09-01T07:35:00;100164.50;;;15.45;79.33
14253;BME280;7210;51.502;10.722;2022-09-01T07:37:31;100161.25;;;15.59;78.82
14253;BME280;7210;51.502;10.722;2022-09-01T07:40:07;100161.97;;;15.71;77.99
14253;BME280;7210;51.502;10.722;2022-09-01T07:42:59;100159.19;;;15.83;77.40
14253;BME280;7210;51.502;10.722;2022-09-01T07:45:49;100160.38;;;15.92;77.29
14253;BME280;7210;51.502;10.722;2022-09-01T07:48:24;100161.78;;;15.99;77.00
14253;BME280;7210;51.502;10.722;2022-09-01T07:50:54;100149.88;;;16.07;76.76
14253;BME280;7210;51.502;10.722;2022-09-01T07:53:27;100156.78;;;16.24;76.37
14253;BME280;7210;51.502;10.722;2022-09-01T07:55:58;100154.72;;;16.31;75.85
14253;BME280;7210;51.502;10.722;2022-09-01T07:58:28;100160.19;;;16.41;75.43
14253;BME280;7210;51.502;10.722;2022-09-01T08:01:06;100165.94;;;16.55;75.40
14253;BME280;7210;51.502;10.722;2022-09-01T08:03:36;100162.75;;;16.58;74.44
14253;BME280;7210;51.502;10.722;2022-09-01T08:06:07;100161.84;;;16.69;74.57
14253;BME280;7210;51.502;10.722;2022-09-01T08:08:38;100164.84;;;16.77;74.54
14253;BME280;7210;51.502;10.722;2022-09-01T08:11:07;100165.25;;;16.91;73.89
14253;BME280;7210;51.502;10.722;2022-09-01T08:13:36;100174.06;;;16.91;73.68
14253;BME280;7210;51.502;10.722;2022-09-01T08:16:06;100170.38;;;16.97;73.06
14253;BME280;7210;51.502;10.722;2022-09-01T08:18:35;100163.50;;;17.06;73.17
14253;BME280;7210;51.502;10.722;2022-09-01T08:21:06;100164.94;;;17.19;73.23
14253;BME280;7210;51.502;10.722;2022-09-01T08:23:55;100164.75;;;17.30;72.65
14253;BME280;7210;51.502;10.722;2022-09-01T08:26:25;100162.75;;;17.42;72.27
14253;BME280;7210;51.502;10.722;2022-09-01T08:28:53;100162.81;;;17.47;71.86
14253;BME280;7210;51.502;10.722;2022-09-01T08:31:28;100171.97;;;17.61;71.74
14253;BME280;7210;51.502;10.722;2022-09-01T08:33:55;100153.63;;;17.80;71.74
14253;BME280;7210;51.502;10.722;2022-09-01T08:36:23;100164.72;;;18.08;71.27
14253;BME280;7210;51.502;10.722;2022-09-01T08:38:51;100162.75;;;18.45;70.03
14253;BME280;7210;51.502;10.722;2022-09-01T08:41:36;100170.31;;;18.68;68.91
14253;BME280;7210;51.502;10.722;2022-09-01T08:44:18;100168.22;;;18.95;67.64
14253;BME280;7210;51.502;10.722;2022-09-01T08:46:57;100156.69;;;19.05;66.59
14253;BME280;7210;51.502;10.722;2022-09-01T08:49:26;100153.78;;;19.21;66.13
14253;BME280;7210;51.502;10.722;2022-09-01T08:52:14;100158.06;;;19.27;65.49
14253;BME280;7210;51.502;10.722;2022-09-01T08:54:46;100166.66;;;19.34;65.08
14253;BME280;7210;51.502;10.722;2022-09-01T08:57:22;100160.75;;;19.37;64.54
14253;BME280;7210;51.502;10.722;2022-09-01T09:00:12;100154.81;;;19.40;64.57
14253;BME280;7210;51.502;10.722;2022-09-01T09:02:52;100155.09;;;19.48;63.67
14253;BME280;7210;51.502;10.722;2022-09-01T09:05:40;100155.06;;;19.63;63.39
14253;BME280;7210;51.502;10.722;2022-09-01T09:08:50;100151.00;;;19.71;62.84
14253;BME280;7210;51.502;10.722;2022-09-01T09:12:05;100149.66;;;19.78;62.35
14253;BME280;7210;51.502;10.722;2022-09-01T09:15:05;100153.09;;;19.99;62.14
14253;BME280;7210;51.502;10.722;2022-09-01T09:17:44;100159.00;;;20.06;61.77
14253;BME280;7210;51.502;10.722;2022-09-01T09:20:13;100148.19;;;20.21;60.95
14253;BME280;7210;51.502;10.722;2022-09-01T09:22:41;100143.28;;;20.38;60.65
14253;BME280;7210;51.502;10.722;2022-09-01T09:25:15;100145.38;;;20.51;59.79
14253;BME280;7210;51.502;10.722;2022-09-01T09:27:45;100140.66;;;20.71;59.68
14253;BME280;7210;51.502;10.722;2022-09-01T09:30:20;100138.97;;;20.80;59.13
14253;BME280;7210;51.502;10.722;2022-09-01T09:32:51;100141.25;;;21.02;58.77
14253;BME280;7210;51.502;10.722;2022-09-01T09:35:30;100138.28;;;21.37;57.30
14253;BME280;7210;51.502;10.722;2022-09-01T09:38:19;100140.63;;;21.72;56.57
14253;BME280;7210;51.502;10.722;2022-09-01T09:41:02;100132.44;;;22.05;55.72
14253;BME280;7210;51.502;10.722;2022-09-01T09:43:34;100131.66;;;22.47;53.56
14253;BME280;7210;51.502;10.722;2022-09-01T09:46:27;100136.88;;;22.94;53.78
14253;BME280;7210;51.502;10.722;2022-09-01T09:49:16;100137.00;;;23.21;52.04
14253;BME280;7210;51.502;10.722;2022-09-01T09:51:48;100137.72;;;23.40;51.48
14253;BME280;7210;51.502;10.722;2022-09-01T09:54:22;100134.28;;;23.53;49.47
14253;BME280;7210;51.502;10.722;2022-09-01T09:57:08;100136.84;;;23.58;48.79
14253;BME280;7210;51.502;10.722;2022-09-01T09:59:41;100136.41;;;23.83;49.09
14253;BME280;7210;51.502;10.722;2022-09-01T10:02:26;100137.31;;;24.05;49.02
14253;BME280;7210;51.502;10.722;2022-09-01T10:04:54;100139.94;;;24.10;47.16
14253;BME280;7210;51.502;10.722;2022-09-01T10:07:30;100142.50;;;24.15;47.65
14253;BME280;7210;51.502;10.722;2022-09-01T10:10:02;100141.50;;;23.97;46.58
14253;BME280;7210;51.502;10.722;2022-09-01T10:12:31;100139.38;;;23.68;46.83
14253;BME280;7210;51.502;10.722;2022-09-01T10:15:06;100145.16;;;23.74;47.50
14253;BME280;7210;51.502;10.722;2022-09-01T10:17:39;100148.13;;;23.92;47.51
14253;BME280;7210;51.502;10.722;2022-09-01T10:20:14;100140.72;;;24.10;47.49
14253;BME280;7210;51.502;10.722;2022-09-01T10:22:43;100146.69;;;24.34;46.97
14253;BME280;7210;51.502;10.722;2022-09-01T10:25:16;100141.44;;;24.51;45.91
14253;BME280;7210;51.502;10.722;2022-09-01T10:27:49;100141.28;;;24.34;44.83
14253;BME280;7210;51.502;10.722;2022-09-01T10:30:20;100141.00;;;24.09;45.22
14253;BME280;7210;51.502;10.722;2022-09-01T10:32:53;100143.84;;;23.91;45.30
14253;BME280;7210;51.502;10.722;2022-09-01T10:35:25;100135.25;;;23.70;43.80
14253;BME280;7210;51.502;10.722;2022-09-01T10:37:57;100138.44;;;23.59;42.50
14253;BME280;7210;51.502;10.722;2022-09-01T10:40:39;100140.34;;;23.45;42.75
14253;BME280;7210;51.502;10.722;2022-09-01T10:43:28;100134.81;;;23.23;42.66
14253;BME280;7210;51.502;10.722;2022-09-01T10:45:59;100141.53;;;23.07;42.65
14253;BME280;7210;51.502;10.722;2022-09-01T10:48:30;100136.13;;;23.07;42.99
14253;BME280;7210;51.502;10.722;2022-09-01T10:51:42;100137.72;;;23.08;42.14
14253;BME280;7210;51.502;10.722;2022-09-01T10:54:51;100132.41;;;23.03;42.28
14253;BME280;7210;51.502;10.722;2022-09-01T10:57:44;100136.13;;;23.07;42.42
14253;BME280;7210;51.502;10.722;2022-09-01T11:00:49;100150.78;;;23.19;41.99
14253;BME280;7210;51.502;10.722;2022-09-01T11:03:53;100143.00;;;23.13;42.87
14253;BME280;7210;51.502;10.722;2022-09-01T11:06:57;100143.34;;;23.11;41.62
14253;BME280;7210;51.502;10.722;2022-09-01T11:09:31;100139.50;;;22.99;41.45
14253;BME280;7210;51.502;10.722;2022-09-01T11:12:22;100129.28;;;22.96;41.34
14253;BME280;7210;51.502;10.722;2022-09-01T11:14:56;100136.41;;;23.05;41.38
14253;BME280;7210;51.502;10.722;2022-09-01T11:17:28;100136.91;;;23.07;41.56
14253;BME280;7210;51.502;10.722;2022-09-01T11:20:03;100142.09;;;23.04;41.52
14253;BME280;7210;51.502;10.722;2022-09-01T11:22:37;100140.59;;;22.98;41.10
14253;BME280;7210;51.502;10.722;2022-09-01T11:31:24;100140.69;;;23.06;41.18
14253;BME280;7210;51.502;10.722;2022-09-01T11:34:02;100149.47;;;23.17;40.88
14253;BME280;7210;51.502;10.722;2022-09-01T11:36:35;100157.19;;;23.23;41.35
14253;BME280;7210;51.502;10.722;2022-09-01T11:39:28;100154.00;;;23.35;40.77
14253;BME280;7210;51.502;10.722;2022-09-01T11:42:02;100155.03;;;23.39;40.83
14253;BME280;7210;51.502;10.722;2022-09-01T11:44:39;100153.06;;;23.58;40.65
14253;BME280;7210;51.502;10.722;2022-09-01T11:47:12;100151.03;;;23.50;40.44
14253;BME280;7210;51.502;10.722;2022-09-01T11:49:50;100153.03;;;23.44;39.68
14253;BME280;7210;51.502;10.722;2022-09-01T11:52:22;100142.44;;;23.48;40.79
14253;BME280;7210;51.502;10.722;2022-09-01T11:54:51;100148.25;;;23.55;41.03
14253;BME280;7210;51.502;10.722;2022-09-01T11:57:27;100152.69;;;23.64;40.16
14253;BME280;7210;51.502;10.722;2022-09-01T11:59:58;100151.50;;;23.83;40.61
14253;BME280;7210;51.502;10.722;2022-09-01T12:02:28;100157.91;;;24.28;40.79
14253;BME280;7210;51.502;10.722;2022-09-01T12:05:00;100156.97;;;24.59;39.80
14253;BME280;7210;51.502;10.722;2022-09-01T12:07:39;100154.06;;;24.56;39.32
14253;BME280;7210;51.502;10.722;2022-09-01T12:10:19;100165.09;;;24.59;38.92
14253;BME280;7210;51.502;10.722;2022-09-01T12:12:48;100163.41;;;24.36;38.70
14253;BME280;7210;51.502;10.722;2022-09-01T12:15:22;100156.94;;;24.10;38.94
14253;BME280;7210;51.502;10.722;2022-09-01T12:17:52;100150.53;;;24.06;39.17
14253;BME280;7210;51.502;10.722;2022-09-01T12:20:28;100161.34;;;24.06;38.97
14253;BME280;7210;51.502;10.722;2022-09-01T12:22:59;100159.13;;;24.08;39.14
14253;BME280;7210;51.502;10.722;2022-09-01T12:25:33;100157.72;;;23.97;38.98
14253;BME280;7210;51.502;10.722;2022-09-01T12:28:04;100159.63;;;23.97;39.57
14253;BME280;7210;51.502;10.722;2022-09-01T12:30:32;100154.44;;;24.00;39.39
14253;BME280;7210;51.502;10.722;2022-09-01T12:33:06;100156.44;;;24.08;39.56
14253;BME280;7210;51.502;10.722;2022-09-01T12:35:34;100163.13;;;23.97;39.92
14253;BME280;7210;51.502;10.722;2022-09-01T12:38:23;100152.09;;;23.80;39.73
14253;BME280;7210;51.502;10.722;2022-09-01T12:40:53;100161.72;;;23.87;40.22
14253;BME280;7210;51.502;10.722;2022-09-01T12:43:32;100161.53;;;23.96;40.41
14253;BME280;7210;51.502;10.722;2022-09-01T12:46:00;100161.22;;;23.84;40.67
14253;BME280;7210;51.502;10.722;2022-09-01T12:48:31;100162.13;;;23.93;40.84
14253;BME280;7210;51.502;10.722;2022-09-01T12:51:02;100161.22;;;23.98;40.16
14253;BME280;7210;51.502;10.722;2022-09-01T12:53:32;100156.09;;;23.70;40.42
14253;BME280;7210;51.502;10.722;2022-09-01T12:56:22;100148.25;;;23.55;40.85
14253;BME280;7210;51.502;10.722;2022-09-01T12:59:07;100154.16;;;23.57;41.14
14253;BME280;7210;51.502;10.722;2022-09-01T13:01:35;100148.47;;;23.45;41.37
14253;BME280;7210;51.502;10.722;2022-09-01T13:04:25;100156.63;;;23.40;40.88
14253;BME280;7210;51.502;10.722;2022-09-01T13:06:55;100155.59;;;23.36;41.25
14253;BME280;7210;51.502;10.722;2022-09-01T13:09:24;100158.91;;;23.33;41.44
14253;BME280;7210;51.502;10.722;2022-09-01T13:11:51;100158.31;;;23.36;41.34
14253;BME280;7210;51.502;10.722;2022-09-01T13:14:18;100149.09;;;23.23;41.02
14253;BME280;7210;51.502;10.722;2022-09-01T13:16:46;100151.41;;;23.30;40.99
14253;BME280;7210;51.502;10.722;2022-09-01T13:19:13;100148.38;;;23.18;41.32
14253;BME280;7210;51.502;10.722;2022-09-01T13:21:40;100138.59;;;23.22;40.91
14253;BME280;7210;51.502;10.722;2022-09-01T13:24:07;100142.22;;;23.31;40.91
14253;BME280;7210;51.502;10.722;2022-09-01T13:26:36;100142.22;;;23.31;41.19
14253;BME280;7210;51.502;10.722;2022-09-01T13:29:03;100145.13;;;23.34;41.13
14253;BME280;7210;51.502;10.722;2022-09-01T13:31:31;100138.34;;;23.37;40.55
14253;BME280;7210;51.502;10.722;2022-09-01T13:33:58;100130.06;;;23.47;40.48
14253;BME280;7210;51.502;10.722;2022-09-01T13:36:26;100144.06;;;23.49;40.51
14253;BME280;7210;51.502;10.722;2022-09-01T13:38:53;100134.94;;;23.45;40.59
14253;BME280;7210;51.502;10.722;2022-09-01T13:41:20;100134.53;;;23.38;40.63
14253;BME280;7210;51.502;10.722;2022-09-01T13:43:48;100129.22;;;23.33;40.14